Scottsville, KY (42164)

11:11 AM CST on February 12, 2016 (GMT -0600)
Halifax | | Change Station
CLOSE
Current Station
Personal Weather Station
Location: Scottsville, KY
Elevation: 741 ft
Nearby Weather Stations

Elev 741 ft 36.84 °N, 86.24 °W | Updated 13 minutes ago

Overcast
Overcast
34.7 °F
Feels Like 35 °F
N
0.0
Wind Variable Wind from West

Today
High -- | Low -- °F
--% Chance of Precip.
Yesterday
High -- | Low -- °F
Precip. -- in
Pressure 30.25 in
Visibility 10.0 miles
Clouds Mostly Cloudy 1000 ft
Overcast 2800 ft
Windchill 35 °F
Dew Point 28 °F
Humidity 77%
Rainfall 0.00 in
Snow Depth Not available.
6:36 AM 5:21 PM
Waxing Crescent, 22% visible
METAR KBWG 121653Z AUTO VRB03KT 10SM BKN010 OVC028 M01/M03 A3023 RMK AO2 SLP243 T10061033
Pressure 30.25 in
Visibility 10.0 miles
Clouds Mostly Cloudy 1000 ft
Overcast 2800 ft
Windchill 35 °F
Dew Point 28 °F
Humidity 77%
Rainfall 0.00 in
Snow Depth Not available.
6:36 AM 5:21 PM
Waxing Crescent, 22% visible
METAR KBWG 121653Z AUTO VRB03KT 10SM BKN010 OVC028 M01/M03 A3023 RMK AO2 SLP243 T10061033

10-Day Weather Forecast

Almanac

Astronomy

Feb. 12, 2016 Rise Set
Actual Time
Civil Twilight
Nautical Twilight
Astronomical Twilight
Moon
Length of Visible Light
Length of Day
Tomorrow will be .
, % of the Moon is Illuminated

Today's Extremes

State Highs State Lows

Community

WunderPhotos

Upload Photos

1,892,353 photos uploaded!

WunderBlog® & News

Nearby

Air Quality

  Air Quality AQ Index Pollutant
Not available.

Snow Depth

Station Depth Elevation

Earthquake Activity

City Distance Mag. Time & Date
Minimum magnitude displayed is 2.5.

Coastal Water Temperatures

Place Temperature

Stations

Nearby Weather Stations

Station Location Temp. Windchill Dew Point Humidity Wind Precip. Elev Updated Type
                   

Watches & Warnings

There are currently no watches in effect.